createdAt,value
2022-09-12T00:00:57.310Z,1011.75
2022-09-12T00:01:57.348Z,1011.76
2022-09-12T00:02:57.382Z,1011.72
2022-09-12T00:03:57.623Z,1011.79
2022-09-12T00:04:57.149Z,1011.76
2022-09-12T00:05:57.220Z,1011.78
2022-09-12T00:06:57.109Z,1011.76
2022-09-12T00:07:57.214Z,1011.71
2022-09-12T00:08:57.211Z,1011.71
2022-09-12T00:09:57.263Z,1011.68
2022-09-12T00:10:57.131Z,1011.69
2022-09-12T00:11:57.170Z,1011.73
2022-09-12T00:12:57.242Z,1011.75
2022-09-12T00:13:57.293Z,1011.74
2022-09-12T00:14:57.244Z,1011.76
2022-09-12T00:15:57.117Z,1011.72
2022-09-12T00:16:57.111Z,1011.72
2022-09-12T00:17:57.026Z,1011.68
2022-09-12T00:18:57.174Z,1011.71
2022-09-12T00:19:57.056Z,1011.69
2022-09-12T00:20:56.944Z,1011.68
2022-09-12T00:21:56.981Z,1011.68
2022-09-12T00:22:57.143Z,1011.71
2022-09-12T00:23:57.377Z,1011.67
2022-09-12T00:24:57.103Z,1011.68
2022-09-12T00:25:57.022Z,1011.64
2022-09-12T00:26:57.214Z,1011.69
2022-09-12T00:27:56.823Z,1011.64
2022-09-12T00:28:57.247Z,1011.65
2022-09-12T00:29:56.954Z,1011.64
2022-09-12T00:30:56.919Z,1011.64
2022-09-12T00:31:56.979Z,1011.60
2022-09-12T00:32:56.879Z,1011.61
2022-09-12T00:33:56.955Z,1011.60
2022-09-12T00:34:56.772Z,1011.61
2022-09-12T00:35:56.729Z,1011.59
2022-09-12T00:36:56.730Z,1011.58
2022-09-12T00:37:56.787Z,1011.57
2022-09-12T00:38:56.852Z,1011.56
2022-09-12T00:39:57.056Z,1011.55
2022-09-12T00:40:56.931Z,1011.56
2022-09-12T00:41:56.867Z,1011.55
2022-09-12T00:42:56.934Z,1011.53
2022-09-12T00:43:56.807Z,1011.51
2022-09-12T00:44:57.592Z,1011.49
2022-09-12T00:45:56.704Z,1011.50
2022-09-12T00:46:56.684Z,1011.50
2022-09-12T00:47:56.908Z,1011.46
2022-09-12T00:48:56.775Z,1011.48
2022-09-12T00:49:56.617Z,1011.49
2022-09-12T00:50:56.659Z,1011.45
2022-09-12T00:51:56.577Z,1011.47
2022-09-12T00:52:56.906Z,1011.40
2022-09-12T00:53:56.735Z,1011.43
2022-09-12T00:54:57.084Z,1011.40
2022-09-12T00:55:56.579Z,1011.38
2022-09-12T00:56:56.494Z,1011.36
2022-09-12T00:57:56.694Z,1011.36
2022-09-12T00:58:56.540Z,1011.39
2022-09-12T00:59:56.498Z,1011.36
2022-09-12T01:00:56.962Z,1011.38
2022-09-12T01:01:56.606Z,1011.36
2022-09-12T01:02:56.482Z,1011.35
2022-09-12T01:03:56.479Z,1011.35
2022-09-12T01:04:56.767Z,1011.31
2022-09-12T01:05:56.268Z,1011.30
2022-09-12T01:06:56.439Z,1011.29
2022-09-12T01:07:56.318Z,1011.28
2022-09-12T01:08:56.451Z,1011.31
2022-09-12T01:09:56.593Z,1011.31
2022-09-12T01:10:56.481Z,1011.31
2022-09-12T01:11:56.408Z,1011.32
2022-09-12T01:12:56.429Z,1011.32
2022-09-12T01:13:56.321Z,1011.33
2022-09-12T01:14:56.252Z,1011.32
2022-09-12T01:15:56.371Z,1011.30
2022-09-12T01:16:56.179Z,1011.31
2022-09-12T01:17:56.254Z,1011.34
2022-09-12T01:18:56.260Z,1011.35
2022-09-12T01:19:57.393Z,1011.38
2022-09-12T01:20:56.464Z,1011.37
2022-09-12T01:21:56.230Z,1011.37
2022-09-12T01:22:56.234Z,1011.39
2022-09-12T01:23:56.966Z,1011.37
2022-09-12T01:24:56.365Z,1011.40
2022-09-12T01:25:56.223Z,1011.35
2022-09-12T01:26:56.371Z,1011.34
2022-09-12T01:27:56.909Z,1011.33
2022-09-12T01:28:56.074Z,1011.32
2022-09-12T01:29:56.189Z,1011.30
2022-09-12T01:31:07.155Z,1011.34
2022-09-12T01:31:58.082Z,1011.32
2022-09-12T01:32:56.002Z,1011.32
2022-09-12T01:33:56.427Z,1011.32
2022-09-12T01:34:56.323Z,1011.32
2022-09-12T01:35:56.124Z,1011.26
2022-09-12T01:36:56.063Z,1011.26
2022-09-12T01:37:55.930Z,1011.31
2022-09-12T01:38:55.865Z,1011.27
2022-09-12T01:39:56.132Z,1011.27
2022-09-12T01:40:56.200Z,1011.28
2022-09-12T01:41:56.072Z,1011.27
2022-09-12T01:42:55.842Z,1011.31
2022-09-12T01:43:55.814Z,1011.30
2022-09-12T01:44:55.916Z,1011.30
2022-09-12T01:45:55.832Z,1011.27
2022-09-12T01:46:55.947Z,1011.28
2022-09-12T01:47:55.911Z,1011.21
2022-09-12T01:48:55.711Z,1011.17
2022-09-12T01:49:55.758Z,1011.14
2022-09-12T01:50:55.733Z,1011.15
2022-09-12T01:51:55.760Z,1011.16
2022-09-12T01:52:55.692Z,1011.14
2022-09-12T01:53:55.682Z,1011.15
2022-09-12T01:54:55.781Z,1011.17
2022-09-12T01:55:55.910Z,1011.15
2022-09-12T01:56:55.670Z,1011.11
2022-09-12T01:57:55.692Z,1011.11
2022-09-12T01:58:55.603Z,1011.10
2022-09-12T01:59:55.744Z,1011.10
2022-09-12T02:00:55.687Z,1011.07
2022-09-12T02:01:55.742Z,1011.09
2022-09-12T02:02:55.561Z,1011.08
2022-09-12T02:03:55.911Z,1011.10
2022-09-12T02:04:56.127Z,1011.09
2022-09-12T02:05:56.535Z,1011.12
2022-09-12T02:06:57.570Z,1011.09
2022-09-12T02:07:56.654Z,1011.09
2022-09-12T02:08:56.436Z,1011.06
2022-09-12T02:09:55.547Z,1011.02
2022-09-12T02:10:57.452Z,1011.02
2022-09-12T02:11:56.367Z,1011.04
2022-09-12T02:12:55.384Z,1011.00
2022-09-12T02:13:55.480Z,1011.02
2022-09-12T02:14:56.975Z,1011.01
2022-09-12T02:15:56.571Z,1010.99
2022-09-12T02:16:56.227Z,1011.03
2022-09-12T02:17:55.883Z,1011.03
2022-09-12T02:18:55.480Z,1011.04
2022-09-12T02:19:55.675Z,1010.98
2022-09-12T02:20:55.354Z,1011.03
2022-09-12T02:21:56.924Z,1010.98
2022-09-12T02:22:57.242Z,1010.99
2022-09-12T02:23:55.724Z,1010.96
2022-09-12T02:24:55.761Z,1010.99
2022-09-12T02:25:55.458Z,1010.97
2022-09-12T02:26:55.869Z,1010.92
2022-09-12T02:27:55.252Z,1010.94
2022-09-12T02:28:55.307Z,1010.96
2022-09-12T02:29:55.259Z,1010.95
2022-09-12T02:30:55.585Z,1010.99
2022-09-12T02:31:55.478Z,1010.94
2022-09-12T02:32:55.295Z,1010.90
2022-09-12T02:33:55.959Z,1010.94
2022-09-12T02:34:56.003Z,1010.89
2022-09-12T02:35:56.485Z,1010.94
2022-09-12T02:36:55.104Z,1010.89
2022-09-12T02:37:55.168Z,1010.93
2022-09-12T02:38:55.128Z,1010.91
2022-09-12T02:39:56.304Z,1010.92
2022-09-12T02:40:55.881Z,1010.89
2022-09-12T02:41:55.199Z,1010.91
2022-09-12T02:42:55.037Z,1010.87
2022-09-12T02:43:55.203Z,1010.88
2022-09-12T02:44:55.066Z,1010.85
2022-09-12T02:45:55.244Z,1010.80
2022-09-12T02:46:55.199Z,1010.81
2022-09-12T02:47:55.405Z,1010.82
2022-09-12T02:48:56.601Z,1010.78
2022-09-12T02:49:55.115Z,1010.76
2022-09-12T02:50:57.193Z,1010.76
2022-09-12T02:51:54.906Z,1010.81
2022-09-12T02:52:54.989Z,1010.71
2022-09-12T02:53:55.040Z,1010.75
2022-09-12T02:54:56.178Z,1010.72
2022-09-12T02:55:55.744Z,1010.75
2022-09-12T02:56:56.248Z,1010.68
2022-09-12T02:57:54.995Z,1010.73
2022-09-12T02:58:54.872Z,1010.73
2022-09-12T02:59:54.934Z,1010.75
2022-09-12T03:00:56.165Z,1010.73
2022-09-12T03:01:56.314Z,1010.75
2022-09-12T03:02:54.895Z,1010.70
2022-09-12T03:03:55.777Z,1010.68
2022-09-12T03:04:56.160Z,1010.69
2022-09-12T03:05:55.257Z,1010.74
2022-09-12T03:06:55.343Z,1010.71
2022-09-12T03:07:56.617Z,1010.67
2022-09-12T03:08:55.059Z,1010.70
2022-09-12T03:09:54.727Z,1010.70
2022-09-12T03:10:54.947Z,1010.72
2022-09-12T03:11:57.104Z,1010.77
2022-09-12T03:12:55.552Z,1010.77
2022-09-12T03:13:54.831Z,1010.73
2022-09-12T03:14:54.926Z,1010.72
2022-09-12T03:15:54.630Z,1010.68
2022-09-12T03:16:54.882Z,1010.69
2022-09-12T03:17:54.883Z,1010.68
2022-09-12T03:18:54.585Z,1010.71
2022-09-12T03:19:54.775Z,1010.67
2022-09-12T03:20:54.752Z,1010.69
2022-09-12T03:21:54.591Z,1010.69
2022-09-12T03:22:54.713Z,1010.66
2022-09-12T03:23:55.026Z,1010.66
2022-09-12T03:24:54.738Z,1010.65
2022-09-12T03:25:54.612Z,1010.63
2022-09-12T03:26:54.692Z,1010.62
2022-09-12T03:27:54.616Z,1010.63
2022-09-12T03:28:54.788Z,1010.66
2022-09-12T03:29:54.669Z,1010.64
2022-09-12T03:30:54.645Z,1010.67
2022-09-12T03:31:54.346Z,1010.66
2022-09-12T03:32:54.547Z,1010.63
2022-09-12T03:33:54.537Z,1010.59
2022-09-12T03:34:54.437Z,1010.61
2022-09-12T03:35:54.669Z,1010.63
2022-09-12T03:36:54.410Z,1010.65
2022-09-12T03:37:54.504Z,1010.59
2022-09-12T03:38:54.799Z,1010.62
2022-09-12T03:39:54.830Z,1010.64
2022-09-12T03:40:55.099Z,1010.65
2022-09-12T03:41:54.222Z,1010.66
2022-09-12T03:42:54.415Z,1010.65
2022-09-12T03:43:54.796Z,1010.64
2022-09-12T03:44:54.272Z,1010.69
2022-09-12T03:45:54.960Z,1010.68
2022-09-12T03:46:54.696Z,1010.69
2022-09-12T03:47:54.203Z,1010.74
2022-09-12T03:48:54.323Z,1010.71
2022-09-12T03:49:54.263Z,1010.70
2022-09-12T03:50:54.469Z,1010.71
2022-09-12T03:51:54.321Z,1010.68
2022-09-12T03:52:54.250Z,1010.70
2022-09-12T03:53:54.272Z,1010.68
2022-09-12T03:54:54.244Z,1010.68
2022-09-12T03:55:54.248Z,1010.68
2022-09-12T03:56:54.127Z,1010.65
2022-09-12T03:57:54.282Z,1010.61
2022-09-12T03:58:54.431Z,1010.65
2022-09-12T03:59:54.338Z,1010.68
2022-09-12T04:00:54.047Z,1010.64
2022-09-12T04:01:54.367Z,1010.59
2022-09-12T04:02:54.056Z,1010.61
2022-09-12T04:03:54.086Z,1010.58
2022-09-12T04:04:54.065Z,1010.59
2022-09-12T04:05:54.021Z,1010.59
2022-09-12T04:06:53.928Z,1010.63
2022-09-12T04:07:53.995Z,1010.63
2022-09-12T04:08:54.121Z,1010.63
2022-09-12T04:09:53.999Z,1010.62
2022-09-12T04:10:54.146Z,1010.59
2022-09-12T04:11:53.976Z,1010.62
2022-09-12T04:12:54.006Z,1010.64
2022-09-12T04:13:53.978Z,1010.60
2022-09-12T04:14:54.111Z,1010.62
2022-09-12T04:15:54.003Z,1010.61
2022-09-12T04:16:54.095Z,1010.61
2022-09-12T04:17:54.243Z,1010.61
2022-09-12T04:18:53.974Z,1010.57
2022-09-12T04:19:54.040Z,1010.53
2022-09-12T04:20:54.088Z,1010.56
2022-09-12T04:21:53.710Z,1010.51
2022-09-12T04:22:53.940Z,1010.49
2022-09-12T04:23:53.792Z,1010.48
2022-09-12T04:24:54.205Z,1010.46
2022-09-12T04:25:53.996Z,1010.44
2022-09-12T04:26:53.676Z,1010.43
2022-09-12T04:27:53.836Z,1010.42
2022-09-12T04:28:53.821Z,1010.43
2022-09-12T04:29:53.642Z,1010.42
2022-09-12T04:30:53.734Z,1010.42
2022-09-12T04:31:53.761Z,1010.45
2022-09-12T04:32:53.586Z,1010.48
2022-09-12T04:33:53.997Z,1010.48
2022-09-12T04:34:53.816Z,1010.49
2022-09-12T04:35:53.698Z,1010.47
2022-09-12T04:36:53.793Z,1010.46
2022-09-12T04:37:53.571Z,1010.39
2022-09-12T04:38:53.797Z,1010.44
2022-09-12T04:39:53.631Z,1010.42
2022-09-12T04:40:53.770Z,1010.43
2022-09-12T04:41:53.554Z,1010.43
2022-09-12T04:42:53.544Z,1010.45
2022-09-12T04:43:53.505Z,1010.44
2022-09-12T04:44:53.460Z,1010.54
2022-09-12T04:45:53.414Z,1010.52
2022-09-12T04:46:53.566Z,1010.48
2022-09-12T04:47:53.473Z,1010.45
2022-09-12T04:48:56.829Z,1010.45
2022-09-12T04:49:53.579Z,1010.44
2022-09-12T04:50:53.431Z,1010.39
2022-09-12T04:51:53.468Z,1010.42
2022-09-12T04:52:53.317Z,1010.47
2022-09-12T04:53:53.476Z,1010.49
2022-09-12T04:54:53.347Z,1010.48
2022-09-12T04:55:53.270Z,1010.48
2022-09-12T04:56:53.329Z,1010.50
2022-09-12T04:57:53.289Z,1010.51
2022-09-12T04:58:53.363Z,1010.47
2022-09-12T04:59:53.210Z,1010.48
2022-09-12T05:00:53.192Z,1010.49
2022-09-12T05:01:53.361Z,1010.45
2022-09-12T05:02:53.172Z,1010.47
2022-09-12T05:03:53.224Z,1010.49
2022-09-12T05:04:53.123Z,1010.47
2022-09-12T05:05:56.464Z,1010.46
2022-09-12T05:06:53.264Z,1010.49
2022-09-12T05:07:53.300Z,1010.44
2022-09-12T05:08:53.163Z,1010.48
2022-09-12T05:09:53.193Z,1010.44
2022-09-12T05:10:53.108Z,1010.48
2022-09-12T05:12:04.102Z,1010.48
2022-09-12T05:12:54.135Z,1010.46
2022-09-12T05:13:53.266Z,1010.48
2022-09-12T05:14:53.087Z,1010.48
2022-09-12T05:15:53.098Z,1010.48
2022-09-12T05:16:53.201Z,1010.47
2022-09-12T05:17:52.984Z,1010.47
2022-09-12T05:18:53.544Z,1010.45
2022-09-12T05:19:52.979Z,1010.45
2022-09-12T05:20:53.316Z,1010.44
2022-09-12T05:21:53.557Z,1010.49
2022-09-12T05:22:52.879Z,1010.43
2022-09-12T05:23:53.089Z,1010.48
2022-09-12T05:24:53.141Z,1010.46
2022-09-12T05:25:52.935Z,1010.45
2022-09-12T05:26:53.146Z,1010.49
2022-09-12T05:27:53.023Z,1010.54
2022-09-12T05:28:52.948Z,1010.46
2022-09-12T05:29:52.936Z,1010.44
2022-09-12T05:30:53.137Z,1010.46
2022-09-12T05:31:53.443Z,1010.47
2022-09-12T05:32:53.188Z,1010.47
2022-09-12T05:33:53.171Z,1010.45
2022-09-12T05:34:52.867Z,1010.46
2022-09-12T05:35:52.862Z,1010.45
2022-09-12T05:36:53.165Z,1010.42
2022-09-12T05:37:52.821Z,1010.44
2022-09-12T05:38:52.733Z,1010.40
2022-09-12T05:39:52.782Z,1010.44
2022-09-12T05:40:52.794Z,1010.43
2022-09-12T05:41:52.904Z,1010.43
2022-09-12T05:42:52.991Z,1010.46
2022-09-12T05:43:52.725Z,1010.46
2022-09-12T05:44:52.829Z,1010.44
2022-09-12T05:45:52.843Z,1010.47
2022-09-12T05:46:52.837Z,1010.42
2022-09-12T05:47:52.873Z,1010.42
2022-09-12T05:48:56.082Z,1010.44
2022-09-12T05:49:52.797Z,1010.45
2022-09-12T05:50:52.587Z,1010.47
2022-09-12T05:51:52.707Z,1010.43
2022-09-12T05:52:52.496Z,1010.45
2022-09-12T05:53:52.514Z,1010.42
2022-09-12T05:54:52.627Z,1010.46
2022-09-12T05:55:52.589Z,1010.48
2022-09-12T05:56:52.556Z,1010.52
2022-09-12T05:57:52.832Z,1010.52
2022-09-12T05:58:52.784Z,1010.54
2022-09-12T05:59:52.586Z,1010.56
2022-09-12T06:00:52.541Z,1010.51
2022-09-12T06:01:52.445Z,1010.55
2022-09-12T06:02:52.496Z,1010.58
2022-09-12T06:03:52.509Z,1010.54
2022-09-12T06:04:52.734Z,1010.57
2022-09-12T06:05:52.461Z,1010.53
2022-09-12T06:06:52.599Z,1010.56
2022-09-12T06:07:52.478Z,1010.60
2022-09-12T06:08:52.560Z,1010.60
2022-09-12T06:09:52.409Z,1010.58
2022-09-12T06:10:52.410Z,1010.60
2022-09-12T06:11:52.359Z,1010.56
2022-09-12T06:12:52.293Z,1010.64
2022-09-12T06:13:52.372Z,1010.55
2022-09-12T06:14:52.608Z,1010.50
2022-09-12T06:15:52.526Z,1010.49
2022-09-12T06:16:52.345Z,1010.49
2022-09-12T06:17:52.234Z,1010.50
2022-09-12T06:18:52.602Z,1010.49
2022-09-12T06:19:52.407Z,1010.47
2022-09-12T06:20:52.272Z,1010.45
2022-09-12T06:21:52.135Z,1010.45
2022-09-12T06:22:52.183Z,1010.45
2022-09-12T06:23:52.146Z,1010.45
2022-09-12T06:24:57.312Z,1010.42
2022-09-12T06:25:53.133Z,1010.43
2022-09-12T06:26:52.667Z,1010.43
2022-09-12T06:27:52.219Z,1010.44
2022-09-12T06:28:52.183Z,1010.40
2022-09-12T06:29:52.096Z,1010.41
2022-09-12T06:30:52.209Z,1010.39
2022-09-12T06:31:52.137Z,1010.35
2022-09-12T06:32:52.054Z,1010.40
2022-09-12T06:33:52.098Z,1010.34
2022-09-12T06:34:52.123Z,1010.38
2022-09-12T06:35:52.113Z,1010.36
2022-09-12T06:36:52.030Z,1010.39
2022-09-12T06:37:52.126Z,1010.35
2022-09-12T06:38:52.271Z,1010.34
2022-09-12T06:39:52.157Z,1010.37
2022-09-12T06:40:52.086Z,1010.36
2022-09-12T06:41:52.056Z,1010.34
2022-09-12T06:42:51.988Z,1010.35
2022-09-12T06:43:52.171Z,1010.37
2022-09-12T06:44:52.154Z,1010.36
2022-09-12T06:45:51.959Z,1010.38
2022-09-12T06:46:52.184Z,1010.38
2022-09-12T06:47:52.153Z,1010.37
2022-09-12T06:48:52.265Z,1010.40
2022-09-12T06:49:51.902Z,1010.42
2022-09-12T06:50:51.954Z,1010.42
2022-09-12T06:51:51.905Z,1010.41
2022-09-12T06:52:51.950Z,1010.42
2022-09-12T06:53:52.082Z,1010.43
2022-09-12T06:54:51.785Z,1010.44
2022-09-12T06:55:51.821Z,1010.44
2022-09-12T06:56:51.877Z,1010.41
2022-09-12T06:57:51.845Z,1010.43
2022-09-12T06:58:51.872Z,1010.44
2022-09-12T06:59:53.785Z,1010.43
2022-09-12T07:00:54.012Z,1010.42
2022-09-12T07:01:53.137Z,1010.37
2022-09-12T07:02:52.113Z,1010.35
2022-09-12T07:03:51.701Z,1010.38
2022-09-12T07:04:51.633Z,1010.40
2022-09-12T07:05:52.148Z,1010.36
2022-09-12T07:06:52.010Z,1010.38
2022-09-12T07:07:52.353Z,1010.40
2022-09-12T07:08:51.705Z,1010.39
2022-09-12T07:09:51.935Z,1010.37
2022-09-12T07:10:51.897Z,1010.40
2022-09-12T07:11:51.550Z,1010.37
2022-09-12T07:12:51.694Z,1010.38
2022-09-12T07:13:51.730Z,1010.41
2022-09-12T07:14:51.556Z,1010.42
2022-09-12T07:15:51.590Z,1010.41
2022-09-12T07:16:51.599Z,1010.40
2022-09-12T07:17:51.500Z,1010.41
2022-09-12T07:18:51.515Z,1010.33
2022-09-12T07:19:51.493Z,1010.38
2022-09-12T07:20:51.610Z,1010.37
2022-09-12T07:21:54.238Z,1010.35
2022-09-12T07:22:52.410Z,1010.38
2022-09-12T07:23:51.519Z,1010.35
2022-09-12T07:24:51.431Z,1010.40
2022-09-12T07:25:51.502Z,1010.38
2022-09-12T07:26:51.579Z,1010.41
2022-09-12T07:27:51.573Z,1010.42
2022-09-12T07:28:51.404Z,1010.45
2022-09-12T07:29:54.662Z,1010.44
2022-09-12T07:30:52.443Z,1010.49
2022-09-12T07:31:51.650Z,1010.47
2022-09-12T07:32:51.684Z,1010.48
2022-09-12T07:33:54.621Z,1010.47
2022-09-12T07:34:52.504Z,1010.43
2022-09-12T07:35:51.398Z,1010.40
2022-09-12T07:36:51.478Z,1010.40
2022-09-12T07:37:51.346Z,1010.40
2022-09-12T07:38:54.511Z,1010.37
2022-09-12T07:39:52.510Z,1010.34
2022-09-12T07:40:51.497Z,1010.36
2022-09-12T07:41:51.540Z,1010.40
2022-09-12T07:42:51.458Z,1010.41
2022-09-12T07:43:51.187Z,1010.40
2022-09-12T07:44:51.688Z,1010.39
2022-09-12T07:45:51.266Z,1010.39
2022-09-12T07:46:51.310Z,1010.38
2022-09-12T07:47:51.499Z,1010.38
2022-09-12T07:48:51.395Z,1010.39
2022-09-12T07:49:51.250Z,1010.41
2022-09-12T07:50:51.096Z,1010.43
2022-09-12T07:51:51.116Z,1010.43
2022-09-12T07:52:51.228Z,1010.45
2022-09-12T07:53:51.090Z,1010.38
2022-09-12T07:54:51.164Z,1010.44
2022-09-12T07:55:51.444Z,1010.41
2022-09-12T07:56:51.059Z,1010.41
2022-09-12T07:57:51.574Z,1010.42
2022-09-12T07:58:51.218Z,1010.35
2022-09-12T07:59:53.342Z,1010.35
2022-09-12T08:00:51.495Z,1010.33
2022-09-12T08:01:51.049Z,1010.33
2022-09-12T08:02:51.297Z,1010.36
2022-09-12T08:03:51.476Z,1010.37
2022-09-12T08:04:51.085Z,1010.34
2022-09-12T08:05:51.063Z,1010.38
2022-09-12T08:06:51.005Z,1010.37
2022-09-12T08:07:54.624Z,1010.34
2022-09-12T08:08:52.826Z,1010.37
2022-09-12T08:09:53.902Z,1010.35
2022-09-12T08:10:51.155Z,1010.36
2022-09-12T08:11:51.092Z,1010.40
2022-09-12T08:12:52.153Z,1010.38
2022-09-12T08:13:56.393Z,1010.41
2022-09-12T08:14:55.493Z,1010.37
2022-09-12T08:15:54.536Z,1010.36
2022-09-12T08:16:51.765Z,1010.35
2022-09-12T08:17:51.683Z,1010.38
2022-09-12T08:18:51.119Z,1010.36
2022-09-12T08:19:52.917Z,1010.32
2022-09-12T08:20:54.990Z,1010.36
2022-09-12T08:23:08.990Z,1010.39
2022-09-12T08:26:26.444Z,1010.37
2022-09-12T08:27:15.826Z,1010.38
2022-09-12T08:28:28.632Z,1010.38
2022-09-12T08:29:41.392Z,1010.35
2022-09-12T08:30:15.251Z,1010.36
2022-09-12T08:32:39.866Z,1010.34
2022-09-12T08:35:01.569Z,1010.29
2022-09-12T08:37:39.519Z,1010.28
2022-09-12T08:38:35.840Z,1010.30
2022-09-12T08:39:35.724Z,1010.28
2022-09-12T08:40:35.671Z,1010.25
2022-09-12T08:41:35.949Z,1010.26
2022-09-12T08:42:36.938Z,1010.23
2022-09-12T08:43:36.108Z,1010.21
2022-09-12T08:44:41.870Z,1010.21
2022-09-12T08:45:40.214Z,1010.25
2022-09-12T08:46:37.861Z,1010.21
2022-09-12T08:47:36.956Z,1010.20
2022-09-12T08:48:36.633Z,1010.20
2022-09-12T08:49:35.582Z,1010.20
2022-09-12T08:50:37.949Z,1010.19
2022-09-12T08:51:38.767Z,1010.24
2022-09-12T08:52:39.968Z,1010.20
2022-09-12T08:53:38.377Z,1010.23
2022-09-12T08:54:35.673Z,1010.25
2022-09-12T08:55:38.430Z,1010.26
2022-09-12T08:56:38.345Z,1010.27
2022-09-12T08:57:39.704Z,1010.27
2022-09-12T08:58:36.645Z,1010.26
2022-09-12T08:59:37.507Z,1010.29
2022-09-12T09:00:43.037Z,1010.32
2022-09-12T09:01:36.467Z,1010.30
2022-09-12T09:02:35.760Z,1010.33
2022-09-12T09:03:36.334Z,1010.30
2022-09-12T09:04:34.978Z,1010.30
2022-09-12T09:05:35.193Z,1010.30
2022-09-12T09:06:36.273Z,1010.33
2022-09-12T09:07:37.169Z,1010.33
2022-09-12T09:08:35.600Z,1010.34
2022-09-12T09:09:36.077Z,1010.33
2022-09-12T09:10:35.246Z,1010.31
2022-09-12T09:11:35.089Z,1010.31
2022-09-12T09:12:37.129Z,1010.30
2022-09-12T09:14:53.333Z,1010.23
2022-09-12T09:15:55.274Z,1010.24
2022-09-12T09:16:53.338Z,1010.27
2022-09-12T09:17:52.823Z,1010.23
2022-09-12T09:18:53.131Z,1010.24
2022-09-12T09:19:53.175Z,1010.21
2022-09-12T09:20:53.270Z,1010.21
2022-09-12T09:21:53.112Z,1010.25
2022-09-12T09:22:53.538Z,1010.22
2022-09-12T09:23:53.155Z,1010.20
2022-09-12T09:24:53.266Z,1010.16
2022-09-12T09:25:52.999Z,1010.24
2022-09-12T09:26:55.574Z,1010.23
2022-09-12T09:28:04.495Z,1010.18
2022-09-12T09:28:53.738Z,1010.20
2022-09-12T09:31:27.064Z,1010.20
2022-09-12T09:33:42.133Z,1010.15
2022-09-12T09:34:42.147Z,1010.20
2022-09-12T09:38:12.978Z,1010.12
2022-09-12T09:39:01.917Z,1010.09
2022-09-12T09:40:01.241Z,1010.08
2022-09-12T09:41:00.920Z,1010.04
2022-09-12T09:42:01.188Z,1010.03
2022-09-12T09:43:00.921Z,1010.06
2022-09-12T09:44:01.385Z,1010.02
2022-09-12T09:45:01.073Z,1010.02
2022-09-12T09:46:01.298Z,1010.01
2022-09-12T09:47:01.139Z,1010.03
2022-09-12T09:48:01.038Z,1010.00
2022-09-12T09:49:02.178Z,1010.00
2022-09-12T09:50:01.662Z,1010.00
2022-09-12T09:51:00.935Z,1010.00
2022-09-12T09:52:01.842Z,1009.97
2022-09-12T09:53:00.986Z,1009.97
2022-09-12T09:54:01.319Z,1009.89
2022-09-12T09:55:00.765Z,1009.91
2022-09-12T09:56:00.775Z,1009.92
2022-09-12T09:57:01.136Z,1009.89
2022-09-12T09:58:01.098Z,1009.88
2022-09-12T09:59:00.971Z,1009.87
2022-09-12T10:00:00.944Z,1009.84
2022-09-12T10:01:00.818Z,1009.83
2022-09-12T10:02:00.956Z,1009.85
2022-09-12T10:03:01.356Z,1009.86
2022-09-12T10:04:00.765Z,1009.82
2022-09-12T10:05:01.497Z,1009.83
2022-09-12T10:06:02.167Z,1009.82
2022-09-12T10:07:01.388Z,1009.80
2022-09-12T10:08:00.766Z,1009.78
2022-09-12T10:09:00.974Z,1009.78
2022-09-12T10:10:02.005Z,1009.75
2022-09-12T10:11:01.243Z,1009.78
2022-09-12T10:12:00.428Z,1009.75
2022-09-12T10:13:00.948Z,1009.71
2022-09-12T10:14:00.976Z,1009.72
2022-09-12T10:15:01.508Z,1009.65
2022-09-12T10:16:00.969Z,1009.67
2022-09-12T10:17:00.510Z,1009.67
2022-09-12T10:18:01.708Z,1009.69
2022-09-12T10:19:00.688Z,1009.66
2022-09-12T10:20:17.870Z,1009.69
2022-09-12T10:21:01.320Z,1009.65
2022-09-12T10:22:00.972Z,1009.62
2022-09-12T10:23:00.426Z,1009.65
2022-09-12T10:24:00.423Z,1009.67
2022-09-12T10:25:00.523Z,1009.64
2022-09-12T10:26:00.674Z,1009.60
2022-09-12T10:27:00.567Z,1009.57
2022-09-12T10:28:00.432Z,1009.58
2022-09-12T10:29:00.501Z,1009.59
2022-09-12T10:30:00.398Z,1009.60
2022-09-12T10:31:00.346Z,1009.58
2022-09-12T10:32:00.385Z,1009.54
2022-09-12T10:33:00.510Z,1009.56
2022-09-12T10:34:00.289Z,1009.52
2022-09-12T10:35:00.794Z,1009.53
2022-09-12T10:36:01.421Z,1009.52
2022-09-12T10:37:00.423Z,1009.53
2022-09-12T10:38:00.220Z,1009.51
2022-09-12T10:39:00.640Z,1009.48
2022-09-12T10:40:00.460Z,1009.52
2022-09-12T10:41:01.551Z,1009.50
2022-09-12T10:42:00.743Z,1009.49
2022-09-12T10:43:00.123Z,1009.45
2022-09-12T10:44:00.662Z,1009.45
2022-09-12T10:45:00.218Z,1009.48
2022-09-12T10:46:00.282Z,1009.48
2022-09-12T10:47:00.253Z,1009.46
2022-09-12T10:48:06.776Z,1009.43
2022-09-12T10:49:01.622Z,1009.40
2022-09-12T10:50:00.204Z,1009.40
2022-09-12T10:51:00.288Z,1009.39
2022-09-12T10:52:00.150Z,1009.39
2022-09-12T10:53:00.361Z,1009.39
2022-09-12T10:54:03.252Z,1009.35
2022-09-12T10:55:00.050Z,1009.38
2022-09-12T10:56:00.306Z,1009.35
2022-09-12T10:57:00.246Z,1009.37
2022-09-12T10:58:01.503Z,1009.31
2022-09-12T10:59:01.797Z,1009.30
2022-09-12T11:00:00.492Z,1009.32
2022-09-12T11:01:00.562Z,1009.32
2022-09-12T11:01:59.919Z,1009.34
2022-09-12T11:03:00.408Z,1009.30
2022-09-12T11:04:00.635Z,1009.30
2022-09-12T11:05:00.010Z,1009.29
2022-09-12T11:05:59.923Z,1009.33
2022-09-12T11:07:01.719Z,1009.35
2022-09-12T11:08:00.532Z,1009.35
2022-09-12T11:09:05.800Z,1009.32
2022-09-12T11:10:01.163Z,1009.30
2022-09-12T11:11:01.571Z,1009.28
2022-09-12T11:11:59.820Z,1009.25
2022-09-12T11:13:00.756Z,1009.26
2022-09-12T11:14:00.460Z,1009.23
2022-09-12T11:14:59.810Z,1009.26
2022-09-12T11:16:00.463Z,1009.16
2022-09-12T11:17:00.063Z,1009.18
2022-09-12T11:17:59.715Z,1009.13
2022-09-12T11:18:59.692Z,1009.10
2022-09-12T11:19:59.751Z,1009.12
2022-09-12T11:20:59.962Z,1009.14
2022-09-12T11:21:59.594Z,1009.10
2022-09-12T11:22:59.569Z,1009.10
2022-09-12T11:23:59.609Z,1009.17
2022-09-12T11:24:59.689Z,1009.11
2022-09-12T11:25:59.615Z,1009.09
2022-09-12T11:26:59.593Z,1009.06
2022-09-12T11:28:01.150Z,1009.06
2022-09-12T11:28:59.916Z,1009.03
2022-09-12T11:29:59.759Z,1009.02
2022-09-12T11:30:59.786Z,1009.01
2022-09-12T11:31:59.619Z,1009.05
2022-09-12T11:33:00.899Z,1008.97
2022-09-12T11:33:59.545Z,1008.94
2022-09-12T11:35:01.039Z,1008.92
2022-09-12T11:35:59.579Z,1008.92
2022-09-12T11:36:59.542Z,1008.93
2022-09-12T11:37:59.528Z,1008.95
2022-09-12T11:39:01.182Z,1008.98
2022-09-12T11:40:01.517Z,1008.93
2022-09-12T11:40:59.409Z,1008.92
2022-09-12T11:41:59.484Z,1008.95
2022-09-12T11:42:59.788Z,1008.93
2022-09-12T11:43:59.863Z,1008.86
2022-09-12T11:44:59.722Z,1008.83
2022-09-12T11:45:59.441Z,1008.84
2022-09-12T11:46:59.472Z,1008.83
2022-09-12T11:47:59.756Z,1008.79
2022-09-12T11:48:59.264Z,1008.80
2022-09-12T11:50:00.644Z,1008.78
2022-09-12T11:50:59.522Z,1008.75
2022-09-12T11:51:59.163Z,1008.84
2022-09-12T11:52:59.413Z,1008.83
2022-09-12T11:53:59.477Z,1008.80
2022-09-12T11:54:59.200Z,1008.80
2022-09-12T11:55:59.314Z,1008.81
2022-09-12T11:56:59.286Z,1008.80
2022-09-12T11:58:00.294Z,1008.81
2022-09-12T11:58:59.183Z,1008.78
2022-09-12T12:00:03.217Z,1008.76
2022-09-12T12:01:00.941Z,1008.72
2022-09-12T12:02:01.150Z,1008.74
2022-09-12T12:02:59.475Z,1008.75
2022-09-12T12:03:59.269Z,1008.72
2022-09-12T12:04:59.678Z,1008.73
2022-09-12T12:05:59.160Z,1008.73
2022-09-12T12:07:14.577Z,1008.75
2022-09-12T12:08:00.253Z,1008.72
2022-09-12T12:08:59.389Z,1008.71
2022-09-12T12:09:59.757Z,1008.73
2022-09-12T12:10:59.072Z,1008.73
2022-09-12T12:11:59.056Z,1008.71
2022-09-12T12:12:59.201Z,1008.72
2022-09-12T12:13:58.927Z,1008.68
2022-09-12T12:14:59.841Z,1008.67
2022-09-12T12:15:58.987Z,1008.73
2022-09-12T12:16:59.261Z,1008.65
2022-09-12T12:18:00.141Z,1008.63
2022-09-12T12:18:59.230Z,1008.66
2022-09-12T12:20:04.286Z,1008.69